Meteorología y climatología de Navarra
Datos de la estación - Meteo Navarra

Estación de Tafalla GN

Altitud 430 m.


Datos desde el 09/11/2018 hasta el 10/11/2018 en horario solar
Los datos son PROVISIONALES

Anterior Página 1 de 1 Siguiente Descargar: Formato para Excel 2000 o superior   Formato csv   Formato para OpenOffice Calc
Fecha Temperatura Humedad relativa Radiación global Insolación Precipitación Velocidad viento 10 m Velocidad viento 10 m Dirección viento 10 m
ºC % W/m² s l/m² m/s km/h º
09/11/2018 0:00 8.3 94 0.0 0 0.0 2.8 10.0 2
09/11/2018 0:10 8.6 90 0.0 0 0.0 2.4 8.7 2
09/11/2018 0:20 8.7 89 0.0 0 0.0 2.6 9.4 7
09/11/2018 0:30 8.7 88 0.0 0 0.0 2.5 9.1 11
09/11/2018 0:40 8.7 88 0.0 0 0.0 2.5 9.1 6
09/11/2018 0:50 8.5 89 0.0 0 0.0 1.5 5.4 341
09/11/2018 1:00 7.9 91 0.0 0 0.0 1.2 4.4 346
09/11/2018 1:10 7.5 93 0.0 0 0.1 1.6 5.9 354
09/11/2018 1:20 8.1 90 0.0 0 0.0 2.2 8.1 346
09/11/2018 1:30 8.1 89 0.0 0 0.0 2.2 8.0 355
09/11/2018 1:40 8.1 90 0.0 0 0.0 1.9 6.9 347
09/11/2018 1:50 7.8 90 0.0 0 0.0 1.5 5.5 355
09/11/2018 2:00 8.2 86 0.0 0 0.0 1.8 6.6 328
09/11/2018 2:10 8.4 81 0.0 0 0.0 3.6 12.8 312
09/11/2018 2:20 9.0 76 0.0 0 0.0 5.0 17.9 303
09/11/2018 2:30 8.8 77 0.0 0 0.0 3.9 14.0 304
09/11/2018 2:40 8.6 79 0.0 0 0.0 3.4 12.1 314
09/11/2018 2:50 8.4 80 0.0 0 0.0 2.9 10.4 311
09/11/2018 3:00 8.5 80 0.0 0 0.0 3.4 12.1 303
09/11/2018 3:10 8.4 80 0.0 0 0.0 3.4 12.3 305
09/11/2018 3:20 8.5 79 0.0 0 0.0 3.8 13.6 299
09/11/2018 3:30 8.3 82 0.0 0 0.0 2.8 10.2 296
09/11/2018 3:40 8.1 84 0.0 0 0.1 3.0 10.9 287
09/11/2018 3:50 8.0 86 0.0 0 0.0 3.1 11.2 292
09/11/2018 4:00 7.9 87 0.0 0 0.0 2.6 9.5 295
09/11/2018 4:10 7.9 86 0.0 0 0.0 3.1 11.2 288
09/11/2018 4:20 8.0 85 0.0 0 0.0 2.7 9.5 288
09/11/2018 4:30 7.8 86 0.0 0 0.0 2.2 7.9 289
09/11/2018 4:40 7.8 87 0.0 0 0.1 2.3 8.2 290
09/11/2018 4:50 7.6 89 0.0 0 0.0 2.9 10.4 286
09/11/2018 5:00 7.5 89 0.0 0 0.0 2.9 10.4 289
09/11/2018 5:10 7.4 88 0.0 0 0.0 2.7 9.8 296
09/11/2018 5:20 7.4 88 0.0 0 0.0 2.6 9.3 302
09/11/2018 5:30 7.6 85 0.0 0 0.0 3.5 12.7 305
09/11/2018 5:40 7.7 83 0.0 0 0.0 3.7 13.4 303
09/11/2018 5:50 7.7 83 0.0 0 0.0 3.7 13.2 303
09/11/2018 6:00 7.8 84 0.0 0 0.0 3.8 13.6 307
09/11/2018 6:10 7.7 84 0.0 0 0.0 4.0 14.4 307
09/11/2018 6:20 7.9 83 0.0 0 0.0 3.7 13.3 309
09/11/2018 6:30 7.8 83 0.0 0 0.0 4.1 14.7 308
09/11/2018 6:40 7.9 82 0.0 0 0.0 5.3 19.2 304
09/11/2018 6:50 8.0 81 0.0 0 0.0 5.3 19.0 304
09/11/2018 7:00 8.0 80 0.0 0 0.0 4.2 15.3 304
09/11/2018 7:10 8.0 81 0.0 0 0.0 4.2 15.3 303
09/11/2018 7:20 7.8 84 5.1 0 0.0 2.7 9.8 300
09/11/2018 7:30 7.7 85 28.2 0 0.0 2.5 8.9 299
09/11/2018 7:40 7.8 86 29.0 0 0.0 2.5 8.9 297
09/11/2018 7:50 7.8 86 43.2 0 0.0 3.3 12.0 285
09/11/2018 8:00 7.7 86 54.0 0 0.0 2.5 9.0 296
09/11/2018 8:10 7.9 83 77.4 0 0.0 3.0 10.8 298
09/11/2018 8:20 7.9 85 74.7 0 0.0 3.5 12.7 284
09/11/2018 8:30 7.8 86 59.9 0 0.0 2.6 9.5 291
09/11/2018 8:40 7.9 85 62.7 0 0.0 2.3 8.2 281
09/11/2018 8:50 7.9 85 80.5 0 0.0 2.9 10.4 278
09/11/2018 9:00 8.1 84 104.4 0 0.0 2.8 10.2 288
09/11/2018 9:10 8.2 84 145.8 52 0.0 2.8 10.0 285
09/11/2018 9:20 8.5 82 303.1 462 0.0 3.4 12.3 277
09/11/2018 9:30 9.0 79 380.9 600 0.0 4.0 14.2 283
09/11/2018 9:40 9.2 78 274.1 600 0.0 4.7 17.1 284
09/11/2018 9:50 9.5 76 222.4 420 0.0 5.2 18.6 284
09/11/2018 10:00 9.6 77 203.4 6 0.0 5.1 18.5 283
09/11/2018 10:10 9.6 77 194.0 0 0.0 4.1 14.8 289
09/11/2018 10:20 9.9 76 277.0 480 0.0 4.0 14.2 292
09/11/2018 10:30 10.3 75 400.9 600 0.0 3.5 12.7 295
09/11/2018 10:40 10.7 73 441.0 586 0.0 4.2 15.2 282
09/11/2018 10:50 10.9 71 494.5 600 0.0 4.6 16.6 279
09/11/2018 11:00 11.1 70 510.5 570 0.1 3.9 14.1 281
09/11/2018 11:10 11.2 68 411.3 384 0.0 4.2 14.9 299
09/11/2018 11:20 11.6 66 554.1 586 0.0 4.5 16.0 306
09/11/2018 11:30 11.8 66 495.3 522 0.0 4.3 15.6 302
09/11/2018 11:40 12.1 65 473.2 492 0.0 5.1 18.2 285
09/11/2018 11:50 11.9 63 561.3 586 0.0 4.9 17.7 289
09/11/2018 12:00 12.0 62 481.4 466 0.0 4.9 17.5 282
09/11/2018 12:10 12.1 62 528.2 600 0.0 4.1 14.7 293
09/11/2018 12:20 12.6 59 630.6 600 0.0 3.7 13.4 324
09/11/2018 12:30 12.6 57 550.3 600 0.0 3.5 12.5 294
09/11/2018 12:40 12.6 57 551.4 600 0.0 3.5 12.6 293
09/11/2018 12:50 12.8 56 573.5 600 0.0 3.7 13.2 302
09/11/2018 13:00 13.0 56 515.9 562 0.0 2.8 9.9 286
09/11/2018 13:10 13.1 56 505.3 600 0.0 4.3 15.4 277
09/11/2018 13:20 13.2 55 480.7 600 0.0 4.3 15.3 289
09/11/2018 13:30 13.2 56 498.7 600 0.0 4.1 14.9 277
09/11/2018 13:40 13.6 59 492.7 600 0.0 4.3 15.4 269
09/11/2018 13:50 13.3 56 465.1 600 0.0 5.3 19.1 287
09/11/2018 14:00 13.0 53 386.6 554 0.0 6.2 22.5 281
09/11/2018 14:10 12.8 53 387.6 600 0.0 5.6 20.0 277
09/11/2018 14:20 13.0 53 343.0 530 0.0 5.6 20.1 281
09/11/2018 14:30 13.0 53 344.8 596 0.0 4.0 14.4 290
09/11/2018 14:40 13.4 51 345.5 600 0.0 3.1 11.1 307
09/11/2018 14:50 13.4 51 307.5 600 0.0 2.6 9.3 324
09/11/2018 15:00 13.4 52 280.2 600 0.0 2.0 7.2 281
09/11/2018 15:10 13.4 51 255.5 600 0.0 3.3 11.9 279
09/11/2018 15:20 13.3 52 229.1 600 0.0 2.1 7.5 302
09/11/2018 15:30 13.2 53 202.4 600 0.0 2.6 9.4 287
09/11/2018 15:40 13.1 53 143.7 474 0.0 2.9 10.5 282
09/11/2018 15:50 12.7 55 71.3 116 0.0 2.2 8.0 261
09/11/2018 16:00 12.5 60 128.0 600 0.0 1.9 6.7 246
09/11/2018 16:10 12.6 60 110.3 600 0.0 2.1 7.5 248
09/11/2018 16:20 12.5 61 81.4 600 0.0 2.1 7.5 238
09/11/2018 16:30 12.3 61 31.8 272 0.0 2.9 10.3 249
09/11/2018 16:40 11.8 60 4.7 0 0.0 3.1 11.2 267
09/11/2018 16:50 11.6 58 0.0 0 0.0 1.4 5.2 276
09/11/2018 17:00 11.1 60 0.0 0 0.0 0.6 2.3 269
09/11/2018 17:10 10.7 61 0.0 0 0.0 1.1 3.9 275
09/11/2018 17:20 10.4 62 0.0 0 0.0 1.5 5.3 283
09/11/2018 17:30 10.5 62 0.0 0 0.0 0.7 2.6 246
09/11/2018 17:40 10.1 64 0.0 0 0.0 0.1 0.5 212
09/11/2018 17:50 9.7 65 0.0 0 0.0 0.3 0.9 64
09/11/2018 18:00 9.9 64 0.0 0 0.0 0.5 1.9 346
09/11/2018 18:10 9.8 64 0.0 0 0.0 0.3 1.1 262
09/11/2018 18:20 10.0 64 0.0 0 0.0 0.9 3.1 101
09/11/2018 18:30 9.8 66 0.0 0 0.0 1.0 3.6 69
09/11/2018 18:40 10.1 67 0.0 0 0.0 0.6 2.0 332
09/11/2018 18:50 9.8 71 0.0 0 0.0 0.7 2.4 295
09/11/2018 19:00 9.7 70 0.0 0 0.0 0.2 0.6 327
09/11/2018 19:10 10.1 66 0.0 0 0.0 0.1 0.4 23
09/11/2018 19:20 10.3 67 0.0 0 0.0 0.2 0.8 82
09/11/2018 19:30 10.3 67 0.0 0 0.0 1.0 3.7 109
09/11/2018 19:40 9.9 73 0.0 0 0.0 1.2 4.3 161
09/11/2018 19:50 9.5 75 0.0 0 0.0 1.1 4.0 166
09/11/2018 20:00 9.3 74 0.0 0 0.0 0.8 2.9 154
09/11/2018 20:10 9.4 72 0.0 0 0.0 1.0 3.6 129
09/11/2018 20:20 9.1 74 0.0 0 0.0 1.4 5.0 133
09/11/2018 20:30 8.9 74 0.0 0 0.0 1.1 3.8 173
09/11/2018 20:40 8.4 78 0.0 0 0.0 0.8 3.0 172
09/11/2018 20:50 8.1 80 0.0 0 0.0 0.4 1.3 188
09/11/2018 21:00 7.9 81 0.0 0 0.0 1.7 6.3 154
09/11/2018 21:10 7.9 82 0.0 0 0.0 2.0 7.3 113
09/11/2018 21:20 8.2 81 0.0 0 0.0 2.1 7.5 112
09/11/2018 21:30 8.4 79 0.0 0 0.0 2.1 7.6 95
09/11/2018 21:40 8.6 76 0.0 0 0.0 2.5 9.1 105
09/11/2018 21:50 9.3 70 0.0 0 0.0 4.0 14.3 108
09/11/2018 22:00 9.7 69 0.0 0 0.0 3.7 13.3 110
09/11/2018 22:10 9.9 68 0.0 0 0.0 4.5 16.3 104
09/11/2018 22:20 10.0 67 0.0 0 0.0 4.6 16.6 105
09/11/2018 22:30 10.0 67 0.0 0 0.0 3.9 14.1 111
09/11/2018 22:40 9.9 68 0.0 0 0.0 4.6 16.5 115
09/11/2018 22:50 10.0 68 0.0 0 0.0 4.4 15.7 112
09/11/2018 23:00 10.0 68 0.0 0 0.0 4.5 16.0 114
09/11/2018 23:10 9.9 69 0.0 0 0.0 4.8 17.2 116
09/11/2018 23:20 9.9 70 0.0 0 0.0 4.7 17.0 114
09/11/2018 23:30 10.0 70 0.0 0 0.0 5.0 18.1 108
09/11/2018 23:40 10.1 70 0.0 0 0.0 5.9 21.3 103
09/11/2018 23:50 10.0 72 0.0 0 0.0 4.5 16.3 105
Anterior Página 1 de 1 Siguiente

NOTA: Tipo de datos según el color:
   - Valores diarios o 10 minutos correctos
   - Valores diarios calculados a partir de un número de datos 10 minutos menor que 144 y mayor que 120, o de un número de datos semihorarios menor que 48 y mayor que 40 (caso de las estaciones de Riegos de Navarra y del MARM)
   - Valores diez minutos estimados


Contacto        Enlaces        Aviso legal